createdAt,value
2018-11-14T00:01:12.734Z,99.57
2018-11-14T00:03:42.663Z,100.00
2018-11-14T00:06:12.769Z,99.95
2018-11-14T00:08:41.971Z,99.58
2018-11-14T00:11:12.605Z,100.00
2018-11-14T00:13:42.319Z,100.00
2018-11-14T00:16:12.385Z,100.00
2018-11-14T00:18:42.552Z,99.82
2018-11-14T00:21:12.676Z,99.72
2018-11-14T00:23:42.295Z,100.00
2018-11-14T00:26:13.746Z,100.00
2018-11-14T00:28:44.187Z,100.00
2018-11-14T00:31:15.226Z,100.00
2018-11-14T00:33:45.260Z,100.00
2018-11-14T00:36:15.369Z,100.00
2018-11-14T00:38:45.392Z,100.00
2018-11-14T00:41:15.005Z,100.00
2018-11-14T00:43:45.022Z,100.00
2018-11-14T00:46:14.738Z,100.00
2018-11-14T00:48:44.766Z,100.00
2018-11-14T00:51:15.013Z,100.00
2018-11-14T00:53:45.107Z,100.00
2018-11-14T00:56:14.923Z,100.00
2018-11-14T00:58:45.765Z,100.00
2018-11-14T01:01:15.174Z,100.00
2018-11-14T01:03:44.886Z,100.00
2018-11-14T01:06:14.392Z,100.00
2018-11-14T01:08:43.976Z,100.00
2018-11-14T01:11:14.246Z,100.00
2018-11-14T01:13:44.257Z,100.00
2018-11-14T01:16:14.172Z,100.00
2018-11-14T01:18:43.791Z,100.00
2018-11-14T01:21:13.702Z,100.00
2018-11-14T01:23:43.420Z,100.00
2018-11-14T01:26:13.435Z,100.00
2018-11-14T01:28:42.612Z,100.00
2018-11-14T01:31:12.966Z,100.00
2018-11-14T01:33:43.483Z,100.00
2018-11-14T01:36:13.547Z,100.00
2018-11-14T01:38:43.652Z,100.00
2018-11-14T01:41:13.556Z,100.00
2018-11-14T01:43:43.477Z,100.00
2018-11-14T01:46:12.990Z,100.00
2018-11-14T01:48:42.857Z,100.00
2018-11-14T01:51:12.314Z,100.00
2018-11-14T01:53:41.927Z,100.00
2018-11-14T01:56:11.947Z,100.00
2018-11-14T01:58:42.379Z,100.00
2018-11-14T02:01:11.988Z,100.00
2018-11-14T02:03:42.010Z,100.00
2018-11-14T02:06:11.623Z,100.00
2018-11-14T02:08:41.644Z,100.00
2018-11-14T02:11:11.457Z,100.00
2018-11-14T02:13:41.687Z,100.00
2018-11-14T02:16:11.713Z,100.00
2018-11-14T02:18:41.734Z,100.00
2018-11-14T02:21:12.046Z,100.00
2018-11-14T02:23:41.775Z,100.00
2018-11-14T02:26:11.184Z,100.00
2018-11-14T02:28:40.590Z,100.00
2018-11-14T02:31:11.113Z,100.00
2018-11-14T02:33:41.144Z,100.00
2018-11-14T02:36:10.651Z,100.00
2018-11-14T02:38:40.673Z,100.00
2018-11-14T02:41:10.468Z,100.00
2018-11-14T02:43:40.202Z,100.00
2018-11-14T02:46:09.814Z,100.00
2018-11-14T02:48:39.537Z,100.00
2018-11-14T02:51:20.815Z,100.00
2018-11-14T02:53:50.935Z,100.00
2018-11-14T02:56:20.957Z,100.00
2018-11-14T02:58:50.156Z,100.00
2018-11-14T03:01:19.733Z,100.00
2018-11-14T03:03:49.890Z,100.00
2018-11-14T03:06:20.079Z,100.00
2018-11-14T03:08:49.933Z,100.00
2018-11-14T03:11:20.211Z,100.00
2018-11-14T03:13:50.015Z,100.00
2018-11-14T03:16:20.099Z,100.00
2018-11-14T03:18:49.593Z,100.00
2018-11-14T03:21:19.214Z,100.00
2018-11-14T03:23:48.831Z,100.00
2018-11-14T03:26:18.949Z,100.00
2018-11-14T03:28:48.889Z,100.00
2018-11-14T03:31:20.017Z,100.00
2018-11-14T03:33:50.036Z,100.00
2018-11-14T03:36:21.601Z,100.00
2018-11-14T03:38:51.809Z,100.00
2018-11-14T03:41:22.043Z,100.00
2018-11-14T03:43:52.215Z,100.00
2018-11-14T03:46:21.978Z,100.00
2018-11-14T03:48:52.204Z,100.00
2018-11-14T03:51:21.881Z,100.00
2018-11-14T03:53:51.527Z,100.00
2018-11-14T03:56:20.747Z,100.00
2018-11-14T03:58:51.015Z,100.00
2018-11-14T04:01:20.769Z,100.00
2018-11-14T04:03:50.893Z,100.00
2018-11-14T04:06:20.299Z,100.00
2018-11-14T04:08:49.805Z,100.00
2018-11-14T04:11:19.316Z,100.00
2018-11-14T04:13:49.107Z,100.00
2018-11-14T04:16:18.774Z,100.00
2018-11-14T04:18:48.719Z,100.00
2018-11-14T04:21:18.891Z,100.00
2018-11-14T04:23:50.546Z,100.00
2018-11-14T04:26:20.472Z,100.00
2018-11-14T04:28:50.795Z,100.00
2018-11-14T04:31:20.710Z,100.00
2018-11-14T04:33:50.221Z,100.00
2018-11-14T04:36:20.727Z,100.00
2018-11-14T04:38:50.777Z,100.00
2018-11-14T04:41:21.194Z,100.00
2018-11-14T04:43:51.231Z,100.00
2018-11-14T04:46:20.917Z,100.00
2018-11-14T04:48:50.956Z,100.00
2018-11-14T04:51:21.909Z,100.00
2018-11-14T04:53:51.243Z,100.00
2018-11-14T04:56:20.822Z,100.00
2018-11-14T04:58:50.949Z,100.00
2018-11-14T05:01:21.585Z,100.00
2018-11-14T05:03:51.198Z,100.00
2018-11-14T05:06:21.592Z,100.00
2018-11-14T05:08:51.237Z,100.00
2018-11-14T05:11:21.327Z,100.00
2018-11-14T05:13:50.807Z,100.00
2018-11-14T05:16:20.891Z,100.00
2018-11-14T05:18:51.118Z,100.00
2018-11-14T05:21:20.975Z,100.00
2018-11-14T05:23:50.953Z,100.00
2018-11-14T05:26:20.903Z,100.00
2018-11-14T05:28:50.695Z,100.00
2018-11-14T05:31:20.452Z,100.00
2018-11-14T05:33:50.124Z,100.00
2018-11-14T05:36:19.925Z,100.00
2018-11-14T05:38:49.857Z,100.00
2018-11-14T05:41:19.366Z,100.00
2018-11-14T05:43:48.772Z,100.00
2018-11-14T05:46:19.077Z,100.00
2018-11-14T05:48:48.716Z,100.00
2018-11-14T05:51:20.385Z,100.00
2018-11-14T05:53:50.129Z,100.00
2018-11-14T05:56:19.465Z,100.00
2018-11-14T05:58:49.117Z,100.00
2018-11-14T06:01:19.339Z,100.00
2018-11-14T06:03:48.690Z,100.00
2018-11-14T06:06:18.771Z,100.00
2018-11-14T06:08:47.969Z,100.00
2018-11-14T06:11:17.281Z,100.00
2018-11-14T06:13:46.985Z,100.00
2018-11-14T06:16:16.493Z,100.00
2018-11-14T06:18:46.312Z,100.00
2018-11-14T06:21:15.635Z,100.00
2018-11-14T06:23:45.654Z,100.00
2018-11-14T06:26:15.357Z,100.00
2018-11-14T06:28:45.271Z,100.00
2018-11-14T06:31:14.779Z,100.00
2018-11-14T06:33:44.456Z,100.00
2018-11-14T06:36:14.004Z,100.00
2018-11-14T06:38:43.925Z,100.00
2018-11-14T06:41:13.538Z,100.00
2018-11-14T06:43:42.944Z,100.00
2018-11-14T06:46:12.512Z,100.00
2018-11-14T06:48:41.927Z,100.00
2018-11-14T06:51:11.918Z,100.00
2018-11-14T06:53:41.599Z,100.00
2018-11-14T06:56:11.721Z,100.00
2018-11-14T06:58:41.314Z,100.00
2018-11-14T07:01:11.461Z,100.00
2018-11-14T07:03:40.868Z,100.00
2018-11-14T07:06:10.473Z,100.00
2018-11-14T07:08:40.984Z,100.00
2018-11-14T07:11:10.458Z,100.00
2018-11-14T07:13:39.930Z,100.00
2018-11-14T07:16:09.954Z,100.00
2018-11-14T07:18:39.667Z,100.00
2018-11-14T07:21:09.456Z,100.00
2018-11-14T07:23:39.025Z,100.00
2018-11-14T07:26:08.442Z,100.00
2018-11-14T07:28:38.019Z,100.00
2018-11-14T07:31:07.627Z,100.00
2018-11-14T07:33:37.171Z,100.00
2018-11-14T07:36:06.889Z,100.00
2018-11-14T07:38:39.436Z,100.00
2018-11-14T07:41:10.786Z,100.00
2018-11-14T07:43:40.945Z,100.00
2018-11-14T07:46:11.247Z,100.00
2018-11-14T07:48:41.052Z,100.00
2018-11-14T07:51:10.669Z,100.00
2018-11-14T07:53:40.020Z,100.00
2018-11-14T07:56:09.589Z,100.00
2018-11-14T07:58:38.996Z,100.00
2018-11-14T08:01:08.816Z,100.00
2018-11-14T08:03:39.037Z,100.00
2018-11-14T08:06:08.755Z,100.00
2018-11-14T08:08:38.941Z,100.00
2018-11-14T08:11:10.173Z,100.00
2018-11-14T08:13:41.071Z,100.00
2018-11-14T08:16:10.680Z,100.00
2018-11-14T08:18:40.303Z,100.00
2018-11-14T08:21:09.909Z,100.00
2018-11-14T08:23:40.243Z,100.00
2018-11-14T08:26:10.464Z,100.00
2018-11-14T08:28:39.976Z,100.00
2018-11-14T08:31:09.383Z,100.00
2018-11-14T08:33:39.099Z,100.00
2018-11-14T08:36:09.006Z,100.00
2018-11-14T08:38:38.526Z,100.00
2018-11-14T08:41:08.001Z,100.00
2018-11-14T08:43:37.760Z,100.00
2018-11-14T08:46:07.776Z,100.00
2018-11-14T08:48:37.488Z,100.00
2018-11-14T08:51:07.885Z,100.00
2018-11-14T08:53:37.531Z,100.00
2018-11-14T08:56:07.248Z,99.75
2018-11-14T08:58:36.646Z,99.25
2018-11-14T09:01:06.164Z,99.83
2018-11-14T09:03:35.643Z,99.10
2018-11-14T09:06:06.476Z,98.39
2018-11-14T09:08:36.025Z,98.99
2018-11-14T09:11:06.628Z,98.22
2018-11-14T09:13:36.377Z,98.38
2018-11-14T09:16:06.196Z,97.81
2018-11-14T09:18:35.728Z,97.65
2018-11-14T09:21:06.857Z,97.66
2018-11-14T09:23:36.462Z,97.57
2018-11-14T09:26:06.384Z,97.47
2018-11-14T09:28:35.778Z,96.03
2018-11-14T09:31:06.564Z,97.60
2018-11-14T09:33:36.037Z,96.65
2018-11-14T09:36:06.064Z,96.56
2018-11-14T09:38:35.856Z,96.24
2018-11-14T09:41:06.616Z,95.84
2018-11-14T09:43:36.128Z,94.69
2018-11-14T09:46:08.403Z,96.14
2018-11-14T09:48:38.305Z,95.22
2018-11-14T09:51:07.731Z,94.37
2018-11-14T09:53:37.441Z,94.67
2018-11-14T09:56:07.157Z,93.62
2018-11-14T09:58:36.718Z,92.88
2018-11-14T10:01:08.330Z,93.01
2018-11-14T10:03:37.763Z,92.61
2018-11-14T10:06:07.283Z,92.63
2018-11-14T10:08:37.165Z,92.30
2018-11-14T10:11:07.288Z,90.92
2018-11-14T10:13:36.900Z,91.48
2018-11-14T10:16:06.604Z,91.81
2018-11-14T10:18:36.600Z,89.98
2018-11-14T10:21:07.231Z,90.26
2018-11-14T10:23:37.607Z,90.09
2018-11-14T10:26:08.652Z,89.16
2018-11-14T10:28:38.671Z,88.27
2018-11-14T10:31:08.561Z,90.10
2018-11-14T10:33:38.610Z,87.39
2018-11-14T10:36:08.687Z,87.69
2018-11-14T10:38:40.092Z,88.04
2018-11-14T10:41:10.322Z,86.89
2018-11-14T10:43:40.134Z,87.36
2018-11-14T10:46:10.168Z,86.06
2018-11-14T10:48:39.976Z,86.29
2018-11-14T10:51:10.023Z,85.35
2018-11-14T10:53:39.718Z,84.73
2018-11-14T10:56:09.531Z,85.82
2018-11-14T10:58:39.857Z,85.44
2018-11-14T11:01:15.000Z,85.32
2018-11-14T11:03:49.498Z,83.89
2018-11-14T11:06:35.015Z,84.99
2018-11-14T11:09:14.469Z,84.49
2018-11-14T11:11:49.377Z,82.36
2018-11-14T11:14:42.028Z,82.21
2018-11-14T11:17:16.350Z,81.95
2018-11-14T11:19:46.286Z,82.22
2018-11-14T11:22:16.308Z,83.41
2018-11-14T11:24:46.590Z,81.60
2018-11-14T11:27:16.391Z,82.17
2018-11-14T11:29:45.898Z,82.61
2018-11-14T11:32:16.291Z,81.37
2018-11-14T11:34:46.007Z,81.51
2018-11-14T11:37:15.894Z,80.14
2018-11-14T11:39:45.435Z,80.10
2018-11-14T11:42:15.201Z,80.68
2018-11-14T11:44:45.277Z,79.74
2018-11-14T11:47:14.687Z,79.73
2018-11-14T11:49:44.298Z,79.44
2018-11-14T11:52:14.117Z,78.41
2018-11-14T11:54:43.513Z,75.68
2018-11-14T11:57:13.133Z,76.33
2018-11-14T11:59:42.976Z,75.42
2018-11-14T12:02:12.842Z,76.14
2018-11-14T12:04:42.686Z,77.11
2018-11-14T12:07:11.991Z,76.64
2018-11-14T12:09:48.975Z,77.01
2018-11-14T12:12:19.099Z,74.86
2018-11-14T12:14:49.123Z,75.99
2018-11-14T12:17:18.836Z,75.37
2018-11-14T12:19:48.760Z,76.12
2018-11-14T12:22:19.085Z,76.58
2018-11-14T12:24:48.697Z,78.81
2018-11-14T12:27:18.325Z,76.72
2018-11-14T12:29:47.900Z,76.81
2018-11-14T12:32:18.462Z,73.87
2018-11-14T12:34:48.268Z,77.05
2018-11-14T12:37:18.146Z,78.89
2018-11-14T12:39:47.700Z,75.96
2018-11-14T12:42:17.317Z,77.40
2018-11-14T12:44:47.183Z,75.23
2018-11-14T12:47:16.642Z,77.13
2018-11-14T12:49:46.067Z,78.15
2018-11-14T12:52:15.766Z,77.94
2018-11-14T12:54:45.888Z,76.93
2018-11-14T12:57:15.536Z,75.17
2018-11-14T12:59:45.648Z,73.17
2018-11-14T13:02:15.751Z,73.32
2018-11-14T13:04:45.670Z,73.69
2018-11-14T13:07:15.704Z,78.15
2018-11-14T13:09:44.790Z,76.87
2018-11-14T13:12:20.652Z,77.61
2018-11-14T13:14:50.247Z,75.05
2018-11-14T13:17:19.558Z,73.03
2018-11-14T13:19:49.281Z,76.21
2018-11-14T13:22:19.099Z,75.98
2018-11-14T13:24:48.866Z,76.64
2018-11-14T13:27:18.427Z,73.12
2018-11-14T13:29:48.864Z,69.83
2018-11-14T13:32:18.569Z,65.80
2018-11-14T13:34:48.111Z,64.37
2018-11-14T13:37:18.205Z,68.69
2018-11-14T13:39:47.822Z,71.99
2018-11-14T13:42:17.531Z,66.01
2018-11-14T13:44:47.147Z,64.78
2018-11-14T13:47:17.166Z,66.33
2018-11-14T13:49:46.936Z,68.93
2018-11-14T13:52:16.903Z,68.04
2018-11-14T13:54:46.208Z,67.24
2018-11-14T13:57:15.925Z,67.65
2018-11-14T13:59:46.254Z,69.15
2018-11-14T14:02:16.074Z,71.00
2018-11-14T14:04:46.402Z,69.90
2018-11-14T14:07:16.053Z,70.97
2018-11-14T14:09:46.749Z,72.84
2018-11-14T14:12:16.198Z,73.11
2018-11-14T14:14:45.976Z,72.40
2018-11-14T14:17:15.551Z,71.75
2018-11-14T14:19:45.506Z,72.76
2018-11-14T14:22:14.936Z,72.85
2018-11-14T14:24:44.941Z,71.53
2018-11-14T14:27:15.164Z,71.65
2018-11-14T14:29:45.169Z,72.14
2018-11-14T14:32:14.487Z,75.04
2018-11-14T14:34:44.103Z,76.09
2018-11-14T14:37:13.508Z,75.49
2018-11-14T14:39:42.817Z,74.42
2018-11-14T14:42:12.424Z,74.67
2018-11-14T14:44:42.443Z,76.73
2018-11-14T14:47:11.851Z,78.14
2018-11-14T14:49:41.257Z,78.59
2018-11-14T14:52:11.177Z,78.49
2018-11-14T14:54:40.789Z,78.99
2018-11-14T14:57:10.325Z,80.96
2018-11-14T14:59:40.950Z,80.49
2018-11-14T15:02:10.753Z,81.68
2018-11-14T15:04:40.159Z,82.78
2018-11-14T15:07:09.668Z,83.64
2018-11-14T15:09:39.441Z,83.94
2018-11-14T15:12:08.998Z,84.56
2018-11-14T15:14:38.403Z,84.26
2018-11-14T15:17:08.226Z,85.18
2018-11-14T15:19:37.629Z,85.37
2018-11-14T15:22:08.067Z,85.96
2018-11-14T15:24:37.367Z,86.61
2018-11-14T15:27:07.108Z,86.34
2018-11-14T15:29:36.952Z,86.87
2018-11-14T15:32:06.919Z,86.59
2018-11-14T15:34:36.838Z,87.66
2018-11-14T15:37:06.757Z,88.21
2018-11-14T15:39:36.061Z,89.51
2018-11-14T15:42:07.206Z,90.75
2018-11-14T15:44:36.750Z,90.90
2018-11-14T15:47:06.735Z,90.98
2018-11-14T15:49:36.962Z,92.38
2018-11-14T15:52:07.496Z,92.62
2018-11-14T15:54:37.101Z,92.41
2018-11-14T15:57:06.309Z,92.25
2018-11-14T15:59:35.914Z,92.78
2018-11-14T16:02:06.752Z,93.80
2018-11-14T16:04:37.083Z,93.41
2018-11-14T16:07:07.208Z,93.30
2018-11-14T16:09:36.814Z,94.23
2018-11-14T16:12:07.141Z,93.84
2018-11-14T16:14:38.255Z,94.73
2018-11-14T16:17:08.254Z,94.87
2018-11-14T16:19:37.916Z,95.12
2018-11-14T16:22:07.630Z,95.63
2018-11-14T16:24:37.507Z,95.95
2018-11-14T16:27:07.633Z,95.20
2018-11-14T16:29:37.177Z,94.47
2018-11-14T16:32:06.996Z,95.39
2018-11-14T16:34:36.317Z,96.84
2018-11-14T16:37:06.321Z,96.00
2018-11-14T16:39:36.652Z,96.35
2018-11-14T16:42:06.852Z,97.42
2018-11-14T16:44:37.077Z,96.38
2018-11-14T16:47:07.117Z,97.07
2018-11-14T16:49:37.038Z,96.96
2018-11-14T16:52:07.063Z,96.98
2018-11-14T16:54:36.948Z,97.07
2018-11-14T16:57:06.592Z,96.97
2018-11-14T16:59:37.633Z,97.34
2018-11-14T17:02:07.147Z,97.90
2018-11-14T17:04:37.113Z,97.59
2018-11-14T17:07:06.963Z,98.29
2018-11-14T17:09:39.156Z,98.30
2018-11-14T17:12:09.479Z,98.15
2018-11-14T17:14:38.914Z,98.38
2018-11-14T17:17:08.495Z,98.73
2018-11-14T17:19:38.171Z,98.69
2018-11-14T17:22:08.041Z,98.71
2018-11-14T17:24:37.812Z,98.13
2018-11-14T17:27:07.660Z,98.59
2018-11-14T17:29:37.230Z,99.00
2018-11-14T17:32:06.989Z,98.90
2018-11-14T17:34:36.889Z,99.56
2018-11-14T17:37:07.638Z,99.77
2018-11-14T17:39:37.019Z,99.45
2018-11-14T17:42:07.236Z,100.00
2018-11-14T17:44:37.094Z,99.60
2018-11-14T17:47:07.158Z,100.00
2018-11-14T17:49:36.776Z,100.00
2018-11-14T17:52:06.625Z,100.00
2018-11-14T17:54:36.575Z,100.00
2018-11-14T17:57:06.900Z,100.00
2018-11-14T17:59:36.612Z,100.00
2018-11-14T18:02:07.045Z,100.00
2018-11-14T18:04:37.375Z,100.00
2018-11-14T18:07:07.362Z,100.00
2018-11-14T18:09:37.214Z,100.00
2018-11-14T18:12:07.235Z,100.00
2018-11-14T18:14:36.998Z,100.00
2018-11-14T18:17:06.455Z,100.00
2018-11-14T18:19:36.477Z,100.00
2018-11-14T18:22:06.566Z,100.00
2018-11-14T18:24:35.240Z,100.00
2018-11-14T18:27:06.721Z,100.00
2018-11-14T18:29:36.670Z,100.00
2018-11-14T18:32:07.266Z,100.00
2018-11-14T18:34:37.018Z,100.00
2018-11-14T18:37:07.045Z,100.00
2018-11-14T18:39:38.909Z,100.00
2018-11-14T18:42:08.931Z,100.00
2018-11-14T18:44:39.157Z,100.00
2018-11-14T18:47:09.267Z,100.00
2018-11-14T18:49:38.694Z,100.00
2018-11-14T18:52:08.593Z,100.00
2018-11-14T18:54:38.217Z,100.00
2018-11-14T18:57:07.709Z,100.00
2018-11-14T18:59:37.973Z,100.00
2018-11-14T19:02:08.488Z,100.00
2018-11-14T19:04:38.269Z,100.00
2018-11-14T19:07:07.919Z,100.00
2018-11-14T19:09:38.043Z,100.00
2018-11-14T19:12:08.003Z,100.00
2018-11-14T19:14:37.733Z,100.00
2018-11-14T19:17:13.331Z,100.00
2018-11-14T19:19:43.964Z,100.00
2018-11-14T19:22:13.356Z,100.00
2018-11-14T19:24:43.249Z,100.00
2018-11-14T19:27:13.103Z,100.00
2018-11-14T19:29:43.239Z,100.00
2018-11-14T19:32:13.216Z,100.00
2018-11-14T19:34:42.859Z,100.00
2018-11-14T19:37:13.597Z,100.00
2018-11-14T19:39:43.198Z,100.00
2018-11-14T19:42:12.861Z,100.00
2018-11-14T19:44:42.842Z,100.00
2018-11-14T19:47:12.757Z,100.00
2018-11-14T19:49:42.592Z,100.00
2018-11-14T19:52:12.803Z,100.00
2018-11-14T19:54:42.512Z,100.00
2018-11-14T19:57:12.542Z,100.00
2018-11-14T19:59:42.453Z,100.00
2018-11-14T20:02:13.719Z,100.00
2018-11-14T20:04:44.543Z,100.00
2018-11-14T20:07:14.927Z,100.00
2018-11-14T20:09:45.101Z,100.00
2018-11-14T20:12:15.227Z,100.00
2018-11-14T20:14:46.175Z,100.00
2018-11-14T20:17:17.485Z,100.00
2018-11-14T20:19:47.744Z,100.00
2018-11-14T20:22:17.966Z,100.00
2018-11-14T20:24:47.988Z,100.00
2018-11-14T20:27:17.804Z,100.00
2018-11-14T20:29:47.822Z,100.00
2018-11-14T20:32:17.750Z,100.00
2018-11-14T20:34:47.558Z,100.00
2018-11-14T20:37:17.099Z,100.00
2018-11-14T20:39:47.092Z,100.00
2018-11-14T20:42:17.415Z,100.00
2018-11-14T20:44:47.439Z,100.00
2018-11-14T20:47:17.358Z,100.00
2018-11-14T20:49:48.092Z,100.00
2018-11-14T20:52:17.840Z,100.00
2018-11-14T20:54:47.637Z,100.00
2018-11-14T20:57:17.039Z,100.00
2018-11-14T20:59:46.738Z,100.00
2018-11-14T21:02:16.783Z,100.00
2018-11-14T21:04:46.279Z,100.00
2018-11-14T21:07:15.770Z,100.00
2018-11-14T21:09:45.579Z,100.00
2018-11-14T21:12:15.100Z,100.00
2018-11-14T21:14:44.815Z,100.00
2018-11-14T21:17:15.127Z,100.00
2018-11-14T21:19:44.756Z,100.00
2018-11-14T21:22:15.079Z,100.00
2018-11-14T21:24:44.335Z,100.00
2018-11-14T21:27:14.510Z,100.00
2018-11-14T21:29:44.251Z,100.00
2018-11-14T21:32:14.445Z,100.00
2018-11-14T21:34:44.262Z,100.00
2018-11-14T21:37:13.824Z,100.00
2018-11-14T21:39:43.694Z,100.00
2018-11-14T21:42:13.186Z,100.00
2018-11-14T21:44:42.709Z,100.00
2018-11-14T21:47:12.289Z,100.00
2018-11-14T21:49:41.730Z,100.00
2018-11-14T21:52:12.196Z,100.00
2018-11-14T21:54:42.036Z,100.00
2018-11-14T21:57:11.732Z,100.00
2018-11-14T21:59:40.995Z,100.00
2018-11-14T22:02:10.556Z,100.00
2018-11-14T22:04:40.039Z,100.00
2018-11-14T22:07:09.214Z,100.00
2018-11-14T22:09:40.465Z,100.00
2018-11-14T22:12:09.975Z,100.00
2018-11-14T22:14:39.485Z,100.00
2018-11-14T22:17:09.507Z,100.00
2018-11-14T22:19:38.863Z,100.00
2018-11-14T22:22:08.523Z,100.00
2018-11-14T22:24:38.245Z,100.00
2018-11-14T22:27:07.770Z,100.00
2018-11-14T22:29:37.461Z,100.00
2018-11-14T22:32:07.276Z,100.00
2018-11-14T22:34:37.229Z,100.00
2018-11-14T22:37:08.134Z,100.00
2018-11-14T22:39:39.634Z,100.00
2018-11-14T22:42:09.822Z,100.00
2018-11-14T22:44:39.321Z,100.00
2018-11-14T22:47:08.725Z,100.00
2018-11-14T22:49:38.213Z,100.00
2018-11-14T22:52:07.972Z,100.00
2018-11-14T22:54:37.360Z,100.00
2018-11-14T22:57:07.316Z,100.00
2018-11-14T22:59:36.583Z,100.00
2018-11-14T23:02:07.114Z,100.00
2018-11-14T23:04:36.724Z,100.00
2018-11-14T23:07:07.155Z,100.00
2018-11-14T23:09:37.010Z,100.00
2018-11-14T23:12:06.790Z,100.00
2018-11-14T23:14:36.402Z,100.00
2018-11-14T23:17:06.624Z,100.00
2018-11-14T23:19:35.931Z,100.00
2018-11-14T23:22:06.459Z,100.00
2018-11-14T23:24:35.924Z,100.00
2018-11-14T23:27:06.499Z,100.00
2018-11-14T23:29:36.265Z,100.00
2018-11-14T23:32:05.755Z,100.00
2018-11-14T23:34:35.226Z,100.00
2018-11-14T23:37:06.480Z,100.00
2018-11-14T23:39:35.836Z,100.00
2018-11-14T23:42:06.930Z,100.00
2018-11-14T23:44:36.534Z,100.00
2018-11-14T23:47:06.660Z,100.00
2018-11-14T23:49:36.231Z,100.00
2018-11-14T23:52:06.392Z,100.00
2018-11-14T23:54:36.207Z,100.00
2018-11-14T23:57:06.533Z,100.00
2018-11-14T23:59:36.454Z,100.00
